Lake Providence, Louisiana
Current Conditions -  °F | °C
As of 2:53 PM on Friday 28 Nov 2014 (Local Time) from KTVR Reporting Station
Clear Clear  
Wind Chill: 61°   Ceiling: Unl
Heat Index: 61°   Visibility: 10mi
Dew Point: 24°   Wind: 12mph
Humidity: 24%   Direction: 180°S
Pressure: 30.25"   Gusts: NA
Location:  32.8°N, 91.18°W
Report Text: KTVR 282053Z AUTO 18010KT 10SM CLR 16/M04 A3025 RMK AO2 SLP250 T01611044 56035
Loading
Personal Weather Stations






























Interactive Weather Map New forecast layout! Learn more

10-Day Weather Forecast

Advertisements
Track Severe Weather on mobile